Time;durP1;ratioP1;P1;durP2;ratioP2;P2;SDS_P1;SDS_P2;PMS_P1;PMS_P2;Temp;Humidity;BMP_temperature;BMP_pressure;BME280_temperature;BME280_humidity;BME280_pressure;Samples;Min_cycle;Max_cycle;Signal;HPM_P1;HPM_P2
2022/01/20 00:01:43;;;;;;;;;;;;;;;-13.80;75.74;97492.81;6346104;28;19920;-63
2022/01/20 00:28:16;;;;;;;;;;;;;;;-13.87;76.18;97488.31;6346614;28;20364;-63
2022/01/20 00:37:58;;;;;;;;;;;;;;;-14.08;76.21;97496.78;6350006;28;19930;-63
2022/01/20 00:40:59;;;;;;;;;;;;;;;-14.21;76.16;97502.13;6351602;28;19924;-64
2022/01/20 00:44:00;;;;;;;;;;;;;;;-14.33;76.51;97491.50;6333115;28;19924;-62
2022/01/20 00:47:02;;;;;;;;;;;;;;;-14.40;76.14;97489.53;6351453;28;20027;-63
2022/01/20 00:50:04;;;;;;;;;;;;;;;-14.47;76.41;97489.25;6350705;28;20298;-63
2022/01/20 00:53:05;;;;;;;;;;;;;;;-14.41;76.93;97497.91;6350381;28;20393;-64
2022/01/20 00:56:06;;;;;;;;;;;;;;;-14.36;77.08;97493.91;6350209;28;20025;-63
2022/01/20 00:59:09;;;;;;;;;;;;;;;-14.44;77.04;97488.53;6351144;28;19997;-63
2022/01/20 01:02:11;;;;;;;;;;;;;;;-14.45;76.81;97496.91;6350922;28;19930;-63
2022/01/20 01:05:20;;;;;;;;;;;;;;;-14.33;77.38;97491.50;6333128;28;19924;-63
2022/01/20 01:08:21;;;;;;;;;;;;;;;-14.05;76.67;97493.50;6331960;28;19935;-63
2022/01/20 01:11:26;;;;;;;;;;;;;;;-13.94;75.40;97496.47;6350844;28;20018;-64
2022/01/20 01:14:31;;;;;;;;;;;;;;;-14.12;75.67;97489.88;6350773;28;20380;-63
2022/01/20 01:24:01;;;;;;;;;;;;;;;-14.30;74.50;97491.63;6350412;28;20029;-63
2022/01/20 01:27:03;;;;;;;;;;;;;;;-14.23;74.99;97493.63;6350397;28;20427;-64
2022/01/20 01:33:07;;;;;;;;;;;;;;;-14.22;74.24;97494.50;6349589;28;19924;-63
2022/01/20 01:36:12;;;;;;;;;;;;;;;-14.36;74.68;97496.44;6349323;28;20014;-63
2022/01/20 01:39:13;;;;;;;;;;;;;;;-14.27;74.38;97500.19;6350154;28;20407;-63
2022/01/20 01:42:14;;;;;;;;;;;;;;;-14.43;74.48;97499.50;6349204;28;20385;-63
2022/01/20 01:45:26;;;;;;;;;;;;;;;-14.37;74.40;97509.88;6349850;28;20073;-63
2022/01/20 01:48:28;;;;;;;;;;;;;;;-14.37;74.59;97504.84;6348805;28;19930;-63
2022/01/20 01:51:34;;;;;;;;;;;;;;;-14.49;74.45;97495.94;6349739;28;19923;-64
2022/01/20 01:54:38;;;;;;;;;;;;;;;-14.54;74.06;97497.44;6349587;28;19923;-64
2022/01/20 01:57:41;;;;;;;;;;;;;;;-14.53;74.55;97503.34;6331308;28;19944;-64
2022/01/20 02:00:43;;;;;;;;;;;;;;;-14.66;73.60;97507.03;6348987;28;19919;-64
2022/01/20 02:03:46;;;;;;;;;;;;;;;-14.58;74.15;97515.78;6348433;28;19970;-64
2022/01/20 02:19:48;;;;;;;;;;;;;;;-14.65;73.87;97515.47;6348686;28;20470;-64
2022/01/20 02:22:52;;;;;;;;;;;;;;;-14.53;74.14;97529.47;6348854;28;19924;-64
2022/01/20 02:25:53;;;;;;;;;;;;;;;-14.75;73.53;97527.66;6348303;28;19924;-64
2022/01/20 02:28:54;;;;;;;;;;;;;;;-14.83;73.48;97528.13;6347615;28;20340;-63
2022/01/20 02:31:56;;;;;;;;;;;;;;;-15.01;73.83;97524.00;6348370;28;20450;-63
2022/01/20 02:34:59;;;;;;;;;;;;;;;-14.99;74.08;97530.00;6348606;28;19924;-63
2022/01/20 02:38:40;;;;;;;;;;;;;;;-14.80;74.07;97538.38;6347352;28;19931;-64
2022/01/20 02:44:56;;;;;;;;;;;;;;;-15.32;74.51;97536.03;6348403;28;20300;-62
2022/01/20 02:47:58;;;;;;;;;;;;;;;-15.19;75.35;97539.19;6347521;28;19924;-62
2022/01/20 02:51:01;;;;;;;;;;;;;;;-14.96;75.19;97535.19;6347109;28;19931;-63
2022/01/20 02:54:03;;;;;;;;;;;;;;;-14.94;74.52;97533.59;6347194;28;20318;-63
2022/01/20 02:57:04;;;;;;;;;;;;;;;-15.18;74.11;97524.91;6347676;28;19923;-63
2022/01/20 03:00:06;;;;;;;;;;;;;;;-15.28;74.27;97528.69;6347612;28;19985;-63
2022/01/20 03:03:08;;;;;;;;;;;;;;;-15.21;75.01;97529.81;6347720;28;19927;-63
2022/01/20 03:06:11;;;;;;;;;;;;;;;-14.91;74.62;97529.50;6347496;28;19923;-63
2022/01/20 03:09:12;;;;;;;;;;;;;;;-15.12;74.10;97522.66;6347028;28;19951;-63
2022/01/20 03:12:13;;;;;;;;;;;;;;;-15.25;74.47;97522.94;6328870;28;19924;-63
2022/01/20 03:15:16;;;;;;;;;;;;;;;-15.31;74.64;97517.56;6346736;28;19923;-63
2022/01/20 03:18:22;;;;;;;;;;;;;;;-15.40;75.13;97513.88;6347400;28;19923;-63
2022/01/20 03:21:23;;;;;;;;;;;;;;;-15.37;75.11;97510.59;6346524;28;19924;-63
2022/01/20 03:24:24;;;;;;;;;;;;;;;-15.38;75.42;97507.22;6346241;28;20412;-63
2022/01/20 03:27:26;;;;;;;;;;;;;;;-15.36;75.22;97498.88;6346669;28;19923;-63
2022/01/20 03:30:28;;;;;;;;;;;;;;;-15.30;75.29;97504.19;6345881;28;19923;-63
2022/01/20 03:33:29;;;;;;;;;;;;;;;-15.27;75.30;97509.38;6328541;28;19924;-63
2022/01/20 03:36:33;;;;;;;;;;;;;;;-15.17;75.27;97501.38;6347069;28;19920;-63
2022/01/20 03:39:37;;;;;;;;;;;;;;;-15.05;75.05;97507.00;6347244;28;19924;-63
2022/01/20 03:42:40;;;;;;;;;;;;;;;-15.09;74.91;97505.13;6328785;28;19924;-63
2022/01/20 03:45:47;;;;;;;;;;;;;;;-15.14;74.98;97501.56;6346469;28;20022;-63
2022/01/20 03:48:50;;;;;;;;;;;;;;;-15.15;75.18;97492.22;6346605;28;19920;-63
2022/01/20 03:51:54;;;;;;;;;;;;;;;-15.14;75.20;97501.56;6346651;28;19934;-63
2022/01/20 03:54:55;;;;;;;;;;;;;;;-15.10;75.08;97505.94;6346250;28;20288;-63
2022/01/20 03:57:56;;;;;;;;;;;;;;;-15.05;75.47;97512.06;6345730;28;20018;-65
2022/01/20 04:00:57;;;;;;;;;;;;;;;-15.10;75.01;97513.50;6346034;28;20409;-63
2022/01/20 04:03:58;;;;;;;;;;;;;;;-15.09;74.81;97520.28;6346018;28;19924;-63
2022/01/20 04:06:59;;;;;;;;;;;;;;;-15.08;74.92;97516.97;6345932;28;19931;-62
2022/01/20 04:10:00;;;;;;;;;;;;;;;-15.11;74.65;97506.75;6346056;28;20499;-63
2022/01/20 04:13:01;;;;;;;;;;;;;;;-15.11;74.58;97508.38;6345908;28;19924;-64
2022/01/20 04:16:14;;;;;;;;;;;;;;;-15.13;74.57;97499.88;6345385;28;20300;-65
2022/01/20 04:19:15;;;;;;;;;;;;;;;-15.05;74.58;97506.16;6346359;28;19924;-63
2022/01/20 04:22:16;;;;;;;;;;;;;;;-14.69;73.68;97506.88;6345059;28;19920;-63
2022/01/20 04:25:17;;;;;;;;;;;;;;;-14.91;73.03;97509.28;6346071;28;20018;-64
2022/01/20 04:28:18;;;;;;;;;;;;;;;-14.98;72.94;97498.88;6346104;28;19924;-66
2022/01/20 04:31:20;;;;;;;;;;;;;;;-14.95;72.99;97499.03;6346323;28;19924;-66
2022/01/20 04:34:24;;;;;;;;;;;;;;;-14.94;73.35;97500.78;6346346;28;20018;-64
2022/01/20 04:37:25;;;;;;;;;;;;;;;-14.78;73.50;97501.44;6345265;28;19930;-63
2022/01/20 04:40:26;;;;;;;;;;;;;;;-14.64;73.24;97495.31;6345968;28;19950;-63
2022/01/20 04:43:27;;;;;;;;;;;;;;;-14.51;73.77;97497.53;6345992;28;19924;-64
2022/01/20 04:59:38;;;;;;;;;;;;;;;-13.62;73.70;97474.97;6345356;28;19924;-64
2022/01/20 05:02:39;;;;;;;;;;;;;;;-13.46;73.17;97471.34;6345669;28;20446;-64
2022/01/20 05:05:41;;;;;;;;;;;;;;;-13.33;73.30;97458.38;6346011;28;19924;-63
2022/01/20 05:08:43;;;;;;;;;;;;;;;-13.13;73.68;97465.00;6345624;28;19924;-63
2022/01/20 05:11:51;;;;;;;;;;;;;;;-12.94;73.22;97455.50;6344992;28;19924;-64
2022/01/20 05:14:55;;;;;;;;;;;;;;;-12.86;72.86;97456.66;6344785;28;19924;-64
2022/01/20 05:17:56;;;;;;;;;;;;;;;-12.75;72.97;97455.34;6345746;28;19930;-63
2022/01/20 05:20:58;;;;;;;;;;;;;;;-12.67;72.54;97455.63;6345015;28;19923;-63
2022/01/20 05:24:01;;;;;;;;;;;;;;;-12.51;72.66;97459.53;6349337;28;20448;-63
2022/01/20 05:27:05;;;;;;;;;;;;;;;-12.46;72.52;97458.03;6350395;28;20377;-63
2022/01/20 05:30:07;;;;;;;;;;;;;;;-12.28;72.76;97447.66;6349486;28;19930;-61
2022/01/20 05:33:10;;;;;;;;;;;;;;;-12.08;72.59;97441.56;6350209;28;20022;-63
2022/01/20 05:36:14;;;;;;;;;;;;;;;-11.89;72.61;97445.50;6349154;28;19939;-62
2022/01/20 05:39:15;;;;;;;;;;;;;;;-11.74;72.40;97452.75;6349272;28;20382;-63
2022/01/20 05:42:19;;;;;;;;;;;;;;;-11.60;72.10;97456.56;6350067;28;19928;-64
2022/01/20 05:45:24;;;;;;;;;;;;;;;-11.54;71.86;97445.72;6350103;28;20014;-63
2022/01/20 05:48:35;;;;;;;;;;;;;;;-11.41;71.77;97452.88;6349733;28;19923;-63
2022/01/20 05:51:39;;;;;;;;;;;;;;;-11.28;71.27;97458.34;6349694;28;19930;-63
2022/01/20 05:54:41;;;;;;;;;;;;;;;-11.40;71.07;97463.94;6349213;28;20018;-64
2022/01/20 05:57:47;;;;;;;;;;;;;;;-11.34;71.07;97454.81;6332091;28;19924;-62
2022/01/20 06:00:48;;;;;;;;;;;;;;;-11.16;71.02;97438.38;6348559;28;19926;-64
2022/01/20 06:03:53;;;;;;;;;;;;;;;-10.93;70.56;97437.34;6349259;28;19931;-63
2022/01/20 06:06:56;;;;;;;;;;;;;;;-10.74;70.25;97443.78;6348895;28;19935;-63
2022/01/20 06:09:57;;;;;;;;;;;;;;;-10.41;70.10;97440.44;6348633;28;19926;-63
2022/01/20 06:12:59;;;;;;;;;;;;;;;-10.15;69.52;97441.06;6348215;28;20018;-65
2022/01/20 06:16:01;;;;;;;;;;;;;;;-10.07;68.99;97444.66;6348839;28;20418;-63
2022/01/20 06:19:02;;;;;;;;;;;;;;;-10.01;68.74;97449.91;6347668;28;19928;-63
2022/01/20 06:22:03;;;;;;;;;;;;;;;-9.79;68.62;97448.75;6348585;28;19924;-63
2022/01/20 06:25:08;;;;;;;;;;;;;;;-9.40;68.73;97449.59;6348680;28;19924;-63
2022/01/20 06:28:09;;;;;;;;;;;;;;;-8.96;67.41;97447.16;6348452;28;20394;-62
2022/01/20 06:31:10;;;;;;;;;;;;;;;-8.96;66.61;97447.16;6348379;28;20419;-64
2022/01/20 06:34:13;;;;;;;;;;;;;;;-9.10;65.41;97457.06;6347616;28;19928;-63
2022/01/20 06:37:14;;;;;;;;;;;;;;;-9.25;64.37;97455.06;6348081;28;19930;-63
2022/01/20 06:40:15;;;;;;;;;;;;;;;-9.31;62.79;97442.19;6347065;28;19923;-63
2022/01/20 06:43:19;;;;;;;;;;;;;;;-9.32;63.29;97432.81;6347970;28;20022;-64
2022/01/20 06:46:20;;;;;;;;;;;;;;;-9.10;62.19;97424.78;6348381;28;20419;-64
2022/01/20 06:49:21;;;;;;;;;;;;;;;-9.00;61.17;97402.03;6347144;28;20006;-63
2022/01/20 06:52:22;;;;;;;;;;;;;;;-8.94;61.93;97412.38;6347769;28;19934;-62
2022/01/20 06:55:23;;;;;;;;;;;;;;;-8.62;61.49;97413.84;6347493;28;19924;-63
2022/01/20 06:58:25;;;;;;;;;;;;;;;-8.10;60.44;97425.78;6346734;28;20313;-63
2022/01/20 07:01:26;;;;;;;;;;;;;;;-7.62;57.79;97432.50;6347621;28;19931;-64
2022/01/20 07:04:27;;;;;;;;;;;;;;;-7.47;56.26;97427.66;6346203;28;20073;-63
2022/01/20 07:07:31;;;;;;;;;;;;;;;-7.08;55.52;97422.19;6347289;28;19930;-63
2022/01/20 07:10:35;;;;;;;;;;;;;;;-5.85;55.40;97422.66;6347141;28;19924;-63
2022/01/20 07:13:36;;;;;;;;;;;;;;;-5.14;52.27;97426.56;6346799;28;19923;-63
2022/01/20 07:16:37;;;;;;;;;;;;;;;-4.21;51.29;97424.38;6347111;28;19920;-63
2022/01/20 07:19:38;;;;;;;;;;;;;;;-3.84;47.98;97421.84;6347290;28;19930;-65
2022/01/20 07:22:41;;;;;;;;;;;;;;;-3.60;48.08;97428.69;6346933;28;19923;-63
2022/01/20 07:25:42;;;;;;;;;;;;;;;-2.29;47.07;97430.06;6346701;28;19928;-64
2022/01/20 07:28:43;;;;;;;;;;;;;;;-0.61;44.36;97432.09;6347022;28;20397;-63
2022/01/20 07:31:47;;;;;;;;;;;;;;;0.65;39.04;97431.19;6345806;28;19923;-64
2022/01/20 07:34:48;;;;;;;;;;;;;;;0.09;37.27;97425.16;6327896;28;19931;-64
2022/01/20 07:37:49;;;;;;;;;;;;;;;-1.45;40.17;97422.59;6327555;28;20309;-64
2022/01/20 07:40:50;;;;;;;;;;;;;;;-0.03;40.24;97418.44;6345793;28;20016;-65
2022/01/20 07:43:51;;;;;;;;;;;;;;;3.42;36.02;97425.94;6345873;28;19988;-64
2022/01/20 07:46:53;;;;;;;;;;;;;;;5.94;32.30;97429.09;6344881;28;20385;-64
2022/01/20 07:49:54;;;;;;;;;;;;;;;6.94;31.28;97414.72;6346314;28;20389;-64
2022/01/20 07:52:57;;;;;;;;;;;;;;;7.73;31.33;97414.78;6346369;28;20022;-64
2022/01/20 07:56:01;;;;;;;;;;;;;;;8.26;30.85;97406.22;6346290;28;19924;-63
2022/01/20 07:59:03;;;;;;;;;;;;;;;8.57;31.48;97400.41;6346196;28;20434;-64
2022/01/20 08:02:06;;;;;;;;;;;;;;;9.94;31.41;97401.34;6346370;28;19924;-65
2022/01/20 08:05:08;;;;;;;;;;;;;;;10.63;29.28;97402.81;6344950;28;19974;-65
2022/01/20 08:08:14;;;;;;;;;;;;;;;12.22;29.55;97400.34;6345918;28;19928;-63
2022/01/20 08:11:21;;;;;;;;;;;;;;;12.73;27.52;97404.09;6346148;28;19927;-64
2022/01/20 08:14:25;;;;;;;;;;;;;;;11.09;28.00;97403.63;6346389;28;19924;-63
2022/01/20 08:17:26;;;;;;;;;;;;;;;7.69;25.87;97380.03;6344883;28;19924;-63
2022/01/20 08:20:27;;;;;;;;;;;;;;;4.42;30.74;97395.19;6344908;28;19923;-64
2022/01/20 08:23:30;;;;;;;;;;;;;;;2.59;31.40;97402.09;6345783;28;19924;-64
2022/01/20 08:26:32;;;;;;;;;;;;;;;0.99;33.07;97399.50;6345794;28;19992;-63
2022/01/20 08:29:35;;;;;;;;;;;;;;;0.03;35.65;97393.31;6345867;28;20036;-63
2022/01/20 08:32:42;;;;;;;;;;;;;;;0.77;32.15;97403.38;6345877;28;19924;-64
2022/01/20 08:35:46;;;;;;;;;;;;;;;0.93;32.46;97397.00;6345866;28;19923;-64
2022/01/20 08:38:47;;;;;;;;;;;;;;;1.86;31.88;97391.69;6344743;28;19924;-64
2022/01/20 08:41:48;;;;;;;;;;;;;;;3.31;29.59;97395.03;6345099;28;19924;-63
2022/01/20 08:44:51;;;;;;;;;;;;;;;3.00;27.63;97400.22;6345464;28;19927;-65
2022/01/20 08:47:54;;;;;;;;;;;;;;;1.43;30.38;97394.34;6345429;28;20061;-66
2022/01/20 08:51:01;;;;;;;;;;;;;;;0.05;30.50;97388.97;6345520;28;19920;-64
2022/01/20 08:54:02;;;;;;;;;;;;;;;-0.72;31.03;97387.44;6345099;28;19923;-64
2022/01/20 08:57:06;;;;;;;;;;;;;;;-0.85;32.02;97380.69;6346577;28;19928;-65
2022/01/20 09:00:08;;;;;;;;;;;;;;;0.94;29.42;97396.16;6350461;28;19930;-64
2022/01/20 09:03:13;;;;;;;;;;;;;;;2.41;27.24;97402.56;6350553;28;19928;-65
2022/01/20 09:06:15;;;;;;;;;;;;;;;2.27;27.55;97400.28;6350564;28;20341;-64
2022/01/20 09:09:20;;;;;;;;;;;;;;;1.48;28.29;97400.28;6349811;28;19926;-64
2022/01/20 09:15:36;;;;;;;;;;;;;;;-0.71;30.57;97390.00;6350020;28;19927;-64
2022/01/20 09:18:39;;;;;;;;;;;;;;;-1.49;32.29;97393.41;6349722;28;20410;-64
2022/01/20 09:21:44;;;;;;;;;;;;;;;-1.17;32.01;97399.97;6350099;28;20383;-63
2022/01/20 09:24:47;;;;;;;;;;;;;;;-1.30;31.68;97400.97;6350344;28;19923;-63
2022/01/20 09:27:52;;;;;;;;;;;;;;;-2.39;32.98;97396.63;6350197;28;20394;-64
2022/01/20 09:30:57;;;;;;;;;;;;;;;-3.35;34.42;97405.53;6349031;28;19967;-63
2022/01/20 09:34:01;;;;;;;;;;;;;;;-4.38;35.83;97403.78;6349157;28;19930;-63
2022/01/20 09:37:04;;;;;;;;;;;;;;;-5.11;37.21;97399.22;6350185;28;20396;-64
2022/01/20 09:40:07;;;;;;;;;;;;;;;-4.97;37.58;97387.28;6348966;28;20000;-63
2022/01/20 09:43:11;;;;;;;;;;;;;;;-4.93;37.41;97392.44;6349771;28;20072;-64
2022/01/20 09:46:12;;;;;;;;;;;;;;;-4.89;37.60;97389.06;6348866;28;19928;-63
2022/01/20 09:49:15;;;;;;;;;;;;;;;-4.89;37.48;97394.19;6349779;28;19935;-64
2022/01/20 09:52:16;;;;;;;;;;;;;;;-5.08;37.74;97394.09;6348780;28;20498;-64
2022/01/20 09:55:18;;;;;;;;;;;;;;;-4.39;37.11;97385.78;6348059;28;20336;-63
2022/01/20 09:58:19;;;;;;;;;;;;;;;-2.55;34.78;97385.53;6349409;28;19924;-64
2022/01/20 10:01:41;;;;;;;;;;;;;;;-1.27;32.56;97388.03;6348081;28;19927;-63
2022/01/20 10:04:44;;;;;;;;;;;;;;;-0.11;31.18;97391.81;6349145;28;19923;-64
2022/01/20 10:07:46;;;;;;;;;;;;;;;0.68;30.07;97378.47;6348201;28;19931;-65
2022/01/20 10:10:51;;;;;;;;;;;;;;;0.89;29.70;97382.41;6348130;28;19924;-64
2022/01/20 10:13:55;;;;;;;;;;;;;;;1.24;28.86;97384.31;6348874;28;19924;-64
2022/01/20 10:16:56;;;;;;;;;;;;;;;1.24;28.34;97379.13;6330370;28;20020;-63
2022/01/20 10:20:07;;;;;;;;;;;;;;;0.15;29.50;97375.03;6349055;28;20014;-64
2022/01/20 10:23:08;;;;;;;;;;;;;;;-1.87;32.60;97361.03;6348602;28;19924;-64
2022/01/20 10:26:22;;;;;;;;;;;;;;;-3.89;34.86;97366.97;6348805;28;19930;-64
2022/01/20 10:29:25;;;;;;;;;;;;;;;-6.12;39.22;97367.78;6348159;28;19923;-64
2022/01/20 10:32:37;;;;;;;;;;;;;;;-6.47;40.12;97364.91;6347671;28;20317;-65
2022/01/20 10:35:39;;;;;;;;;;;;;;;-7.21;41.22;97353.00;6348668;28;20377;-64
2022/01/20 10:38:52;;;;;;;;;;;;;;;-7.68;41.71;97352.38;6348186;28;19927;-64
2022/01/20 10:42:03;;;;;;;;;;;;;;;-8.66;43.21;97350.84;6348338;28;19924;-65
2022/01/20 10:45:05;;;;;;;;;;;;;;;-9.32;45.05;97346.16;6348058;28;19924;-64
2022/01/20 10:48:16;;;;;;;;;;;;;;;-10.10;46.09;97332.59;6347085;28;19931;-64
2022/01/20 10:51:21;;;;;;;;;;;;;;;-10.29;46.44;97336.44;6348063;28;20286;-64
2022/01/20 10:54:25;;;;;;;;;;;;;;;-10.37;46.76;97342.16;6329575;28;19977;-64
2022/01/20 10:57:30;;;;;;;;;;;;;;;-10.26;46.64;97330.53;6347930;28;19923;-63
2022/01/20 11:00:40;;;;;;;;;;;;;;;-10.20;46.46;97326.44;6346980;28;19928;-65
2022/01/20 11:03:44;;;;;;;;;;;;;;;-10.12;46.90;97324.06;6347777;28;20308;-64
2022/01/20 11:06:45;;;;;;;;;;;;;;;-10.26;47.16;97330.53;6347401;28;20320;-64
2022/01/20 11:09:55;;;;;;;;;;;;;;;-10.52;47.64;97338.41;6329707;28;19928;-64
2022/01/20 11:12:57;;;;;;;;;;;;;;;-10.60;47.79;97336.50;6328631;28;19927;-65
2022/01/20 11:16:00;;;;;;;;;;;;;;;-10.65;48.40;97338.94;6347197;28;19925;-64
2022/01/20 11:19:01;;;;;;;;;;;;;;;-10.85;48.83;97328.25;6346907;28;19935;-65
2022/01/20 11:22:11;;;;;;;;;;;;;;;-10.67;49.66;97328.75;6346210;28;20030;-64
2022/01/20 11:25:16;;;;;;;;;;;;;;;-11.36;50.11;97318.41;6346167;28;20412;-64
2022/01/20 11:28:18;;;;;;;;;;;;;;;-11.36;50.12;97304.03;6346275;28;19930;-65
2022/01/20 11:31:28;;;;;;;;;;;;;;;-11.15;50.10;97305.44;6346788;28;20290;-65
2022/01/20 11:34:32;;;;;;;;;;;;;;;-11.40;50.70;97317.47;6329241;28;20367;-64
2022/01/20 11:37:39;;;;;;;;;;;;;;;-11.54;50.95;97324.72;6346587;28;19927;-64
2022/01/20 11:40:58;;;;;;;;;;;;;;;-11.65;51.03;97335.38;6345787;28;19928;-65
2022/01/20 11:44:06;;;;;;;;;;;;;;;-11.71;51.71;97330.13;6346573;28;19923;-65
2022/01/20 11:47:09;;;;;;;;;;;;;;;-11.69;52.14;97323.41;6345837;28;20432;-65
2022/01/20 11:50:19;;;;;;;;;;;;;;;-11.99;51.90;97320.03;6345492;28;19924;-64
2022/01/20 11:53:21;;;;;;;;;;;;;;;-12.04;52.60;97321.59;6346384;28;19923;-64
2022/01/20 11:56:31;;;;;;;;;;;;;;;-12.09;53.14;97327.31;6346010;28;20307;-64
2022/01/20 11:59:39;;;;;;;;;;;;;;;-11.99;53.64;97324.28;6345905;28;20397;-64
2022/01/20 12:02:41;;;;;;;;;;;;;;;-12.34;54.06;97326.59;6346443;28;19923;-64
2022/01/20 12:05:44;;;;;;;;;;;;;;;-12.37;54.33;97321.41;6346374;28;20436;-65
2022/01/20 12:08:54;;;;;;;;;;;;;;;-12.77;55.43;97335.31;6345973;28;19924;-65
2022/01/20 12:11:55;;;;;;;;;;;;;;;-12.92;55.23;97339.91;6345999;28;20312;-64
2022/01/20 12:15:06;;;;;;;;;;;;;;;-13.25;55.52;97330.31;6345064;28;20012;-64
2022/01/20 12:18:09;;;;;;;;;;;;;;;-13.35;55.93;97328.31;6345852;28;19927;-64
2022/01/20 12:21:14;;;;;;;;;;;;;;;-13.35;56.73;97330.84;6345819;28;19931;-64
2022/01/20 12:24:15;;;;;;;;;;;;;;;-13.65;56.26;97321.34;6345190;28;20401;-66
2022/01/20 12:27:16;;;;;;;;;;;;;;;-13.53;56.63;97322.59;6345837;28;19931;-65
2022/01/20 12:30:22;;;;;;;;;;;;;;;-13.53;57.32;97323.44;6346115;28;19924;-64
2022/01/20 12:33:30;;;;;;;;;;;;;;;-14.05;57.24;97314.81;6345400;28;19923;-64
2022/01/20 12:36:37;;;;;;;;;;;;;;;-14.00;58.09;97309.09;6344795;28;19935;-65
2022/01/20 12:39:41;;;;;;;;;;;;;;;-14.32;58.76;97302.03;6345862;28;19923;-64
2022/01/20 12:42:44;;;;;;;;;;;;;;;-14.18;58.98;97299.13;6345829;28;19924;-65
2022/01/20 12:45:56;;;;;;;;;;;;;;;-14.50;58.95;97302.16;6345654;28;20314;-64
2022/01/20 12:49:05;;;;;;;;;;;;;;;-14.43;59.22;97299.84;6345023;28;19931;-65
2022/01/20 12:52:07;;;;;;;;;;;;;;;-14.61;59.69;97303.41;6345542;28;20381;-64
2022/01/20 12:55:08;;;;;;;;;;;;;;;-14.37;59.33;97300.13;6344709;28;19946;-64
2022/01/20 12:58:13;;;;;;;;;;;;;;;-14.71;59.14;97311.47;6345848;28;19927;-64
2022/01/20 13:01:14;;;;;;;;;;;;;;;-14.88;59.42;97322.53;6344431;28;19931;-64
2022/01/20 13:04:17;;;;;;;;;;;;;;;-14.94;60.09;97315.59;6345210;28;20381;-63
2022/01/20 13:07:18;;;;;;;;;;;;;;;-15.23;60.09;97319.41;6345565;28;19947;-64
2022/01/20 13:10:31;;;;;;;;;;;;;;;-15.27;60.31;97327.66;6345264;28;20304;-64
2022/01/20 13:13:32;;;;;;;;;;;;;;;-15.33;60.39;97319.84;6344593;28;19928;-64
2022/01/20 13:16:33;;;;;;;;;;;;;;;-15.59;60.58;97322.09;6345055;28;19939;-64
2022/01/20 13:19:36;;;;;;;;;;;;;;;-15.76;60.65;97320.53;6345252;28;19923;-64
2022/01/20 13:22:43;;;;;;;;;;;;;;;-15.98;61.04;97322.09;6345408;28;20332;-64
2022/01/20 13:25:44;;;;;;;;;;;;;;;-15.67;61.20;97310.81;6344027;28;19931;-65
2022/01/20 13:28:45;;;;;;;;;;;;;;;-15.94;61.60;97315.53;6344716;28;19923;-64
2022/01/20 13:31:54;;;;;;;;;;;;;;;-15.90;61.61;97313.22;6345416;28;20309;-64
2022/01/20 13:34:59;;;;;;;;;;;;;;;-16.04;61.42;97298.28;6344299;28;19923;-64
2022/01/20 13:38:09;;;;;;;;;;;;;;;-16.42;61.61;97290.69;6327156;28;20061;-65
2022/01/20 13:41:19;;;;;;;;;;;;;;;-16.61;61.93;97283.09;6327615;28;19963;-65
2022/01/20 13:47:50;;;;;;;;;;;;;;;-16.62;62.63;97297.34;6349393;28;19983;-64
2022/01/20 13:50:56;;;;;;;;;;;;;;;-16.72;62.61;97289.31;6349532;28;19924;-64
2022/01/20 13:53:59;;;;;;;;;;;;;;;-16.72;62.86;97285.13;6348450;28;19923;-64
2022/01/20 13:57:02;;;;;;;;;;;;;;;-16.93;62.97;97282.47;6349508;28;19931;-65
2022/01/20 14:00:04;;;;;;;;;;;;;;;-16.93;63.39;97279.94;6349553;28;19923;-65
2022/01/20 14:03:06;;;;;;;;;;;;;;;-17.06;63.57;97285.22;6349493;28;19924;-65
2022/01/20 14:06:09;;;;;;;;;;;;;;;-16.95;63.83;97286.59;6349431;28;19924;-65
2022/01/20 14:09:10;;;;;;;;;;;;;;;-16.80;63.83;97287.31;6348776;28;19923;-64
2022/01/20 14:12:15;;;;;;;;;;;;;;;-16.85;63.65;97287.88;6349752;28;19996;-65
2022/01/20 14:15:20;;;;;;;;;;;;;;;-16.95;63.92;97280.66;6347514;28;19924;-65
2022/01/20 14:18:22;;;;;;;;;;;;;;;-17.00;63.97;97278.81;6330831;28;19996;-65
2022/01/20 14:21:23;;;;;;;;;;;;;;;-17.02;63.99;97294.63;6348777;28;20366;-64
2022/01/20 14:24:24;;;;;;;;;;;;;;;-17.06;63.96;97300.31;6348948;28;19931;-64
2022/01/20 14:27:27;;;;;;;;;;;;;;;-17.24;64.27;97296.06;6348707;28;20397;-65
2022/01/20 14:30:29;;;;;;;;;;;;;;;-17.28;64.26;97296.72;6348541;28;19923;-64
2022/01/20 14:33:34;;;;;;;;;;;;;;;-17.31;64.71;97290.69;6349116;28;19927;-64
2022/01/20 14:36:35;;;;;;;;;;;;;;;-17.31;64.72;97290.69;6348904;28;20331;-63
2022/01/20 14:39:45;;;;;;;;;;;;;;;-17.24;64.49;97298.59;6348676;28;19924;-64
2022/01/20 14:42:49;;;;;;;;;;;;;;;-17.32;64.58;97288.94;6348616;28;19924;-65
2022/01/20 14:45:50;;;;;;;;;;;;;;;-17.33;64.37;97293.13;6347951;28;19923;-65
2022/01/20 14:48:52;;;;;;;;;;;;;;;-17.42;64.71;97295.19;6347713;28;20416;-65
2022/01/20 14:51:57;;;;;;;;;;;;;;;-17.30;64.87;97293.25;6348265;28;19928;-65
2022/01/20 14:55:00;;;;;;;;;;;;;;;-17.41;64.43;97281.81;6348003;28;20302;-64
2022/01/20 14:58:04;;;;;;;;;;;;;;;-17.51;64.88;97287.19;6347850;28;19923;-64
2022/01/20 15:01:07;;;;;;;;;;;;;;;-17.45;64.78;97283.31;6347994;28;19924;-65
2022/01/20 15:04:08;;;;;;;;;;;;;;;-17.55;64.73;97280.25;6347279;28;20441;-64
2022/01/20 15:07:12;;;;;;;;;;;;;;;-17.64;64.84;97274.78;6347912;28;19927;-64
2022/01/20 15:10:17;;;;;;;;;;;;;;;-17.67;65.05;97290.56;6348043;28;19928;-64
2022/01/20 15:13:18;;;;;;;;;;;;;;;-17.74;65.02;97289.41;6347365;28;19947;-64
2022/01/20 15:16:19;;;;;;;;;;;;;;;-17.78;65.04;97301.75;6347642;28;19923;-65
2022/01/20 15:19:20;;;;;;;;;;;;;;;-17.82;65.20;97302.41;6347215;28;20322;-65
2022/01/20 15:22:21;;;;;;;;;;;;;;;-17.85;65.22;97305.63;6346997;28;19924;-64
2022/01/20 15:25:23;;;;;;;;;;;;;;;-17.86;65.37;97303.88;6347487;28;19945;-64
2022/01/20 15:28:29;;;;;;;;;;;;;;;-17.84;65.41;97302.31;6346992;28;19947;-65
2022/01/20 15:31:35;;;;;;;;;;;;;;;-17.84;65.29;97312.38;6346441;28;19934;-65
2022/01/20 15:34:37;;;;;;;;;;;;;;;-17.90;64.89;97317.09;6347256;28;20413;-64
2022/01/20 15:37:38;;;;;;;;;;;;;;;-17.96;64.93;97321.78;6346884;28;19930;-65
2022/01/20 15:40:41;;;;;;;;;;;;;;;-18.00;65.01;97310.72;6347348;28;20393;-65
2022/01/20 15:43:46;;;;;;;;;;;;;;;-18.03;64.90;97309.69;6347036;28;20014;-64
2022/01/20 15:46:47;;;;;;;;;;;;;;;-18.07;64.96;97297.75;6345465;28;19923;-65
2022/01/20 15:49:50;;;;;;;;;;;;;;;-18.07;64.85;97298.63;6347033;28;19923;-65
2022/01/20 15:52:51;;;;;;;;;;;;;;;-18.15;64.81;97295.69;6345834;28;19919;-64
2022/01/20 15:55:52;;;;;;;;;;;;;;;-18.20;64.63;97293.72;6346346;28;20325;-64
2022/01/20 15:58:55;;;;;;;;;;;;;;;-18.25;64.65;97297.66;6346955;28;19924;-64
2022/01/20 16:01:57;;;;;;;;;;;;;;;-18.30;64.31;97299.94;6346744;28;19946;-65
2022/01/20 16:04:59;;;;;;;;;;;;;;;-18.27;64.03;97285.03;6346883;28;19968;-64
2022/01/20 16:08:03;;;;;;;;;;;;;;;-18.26;63.98;97294.28;6346143;28;19924;-64
2022/01/20 16:11:04;;;;;;;;;;;;;;;-18.35;63.55;97297.16;6346035;28;19931;-65
2022/01/20 16:14:08;;;;;;;;;;;;;;;-18.41;63.74;97294.31;6342714;28;19923;-65
2022/01/20 16:17:11;;;;;;;;;;;;;;;-18.44;63.83;97289.16;6328846;28;19946;-65
2022/01/20 16:20:12;;;;;;;;;;;;;;;-18.45;63.81;97289.06;6346323;28;20497;-66
2022/01/20 16:23:15;;;;;;;;;;;;;;;-18.47;63.77;97285.63;6344830;28;20282;-64
2022/01/20 16:26:16;;;;;;;;;;;;;;;-18.45;63.79;97286.53;6346269;28;20419;-63
2022/01/20 16:29:19;;;;;;;;;;;;;;;-18.47;63.86;97275.56;6345983;28;19924;-64
2022/01/20 16:32:22;;;;;;;;;;;;;;;-18.47;63.88;97286.47;6346026;28;20016;-65
2022/01/20 16:35:25;;;;;;;;;;;;;;;-18.48;63.87;97289.78;6346797;28;20018;-65
2022/01/20 16:38:31;;;;;;;;;;;;;;;-18.51;63.72;97288.72;6346221;28;19923;-63
2022/01/20 16:41:34;;;;;;;;;;;;;;;-18.56;63.33;97286.00;6346225;28;19923;-65
2022/01/20 16:44:36;;;;;;;;;;;;;;;-18.60;63.58;97279.06;6345994;28;20012;-64
2022/01/20 16:47:41;;;;;;;;;;;;;;;-18.61;63.37;97278.19;6345399;28;19948;-64
2022/01/20 16:50:41;;;;;;;;;;;;;;;-18.62;63.41;97286.53;6345217;28;19924;-65
2022/01/20 16:53:43;;;;;;;;;;;;;;;-18.62;63.54;97291.53;6345075;28;20029;-63
2022/01/20 16:56:47;;;;;;;;;;;;;;;-18.68;62.85;97295.34;6345897;28;19995;-64
2022/01/20 16:59:52;;;;;;;;;;;;;;;-18.73;62.65;97272.53;6344933;28;19919;-65
2022/01/20 17:03:03;;;;;;;;;;;;;;;-18.75;62.84;97284.16;6345896;28;20455;-65